createdAt,value
2018-12-21T00:00:57.685Z,6.63
2018-12-21T00:01:57.797Z,6.63
2018-12-21T00:02:57.764Z,6.64
2018-12-21T00:03:57.728Z,6.64
2018-12-21T00:04:57.846Z,6.63
2018-12-21T00:05:57.772Z,6.65
2018-12-21T00:06:57.826Z,6.64
2018-12-21T00:07:59.023Z,6.64
2018-12-21T00:08:57.910Z,6.64
2018-12-21T00:09:58.288Z,6.62
2018-12-21T00:10:57.704Z,6.63
2018-12-21T00:11:57.796Z,6.61
2018-12-21T00:12:57.622Z,6.63
2018-12-21T00:13:57.672Z,6.61
2018-12-21T00:14:57.712Z,6.62
2018-12-21T00:15:57.739Z,6.63
2018-12-21T00:16:57.756Z,6.63
2018-12-21T00:17:57.643Z,6.63
2018-12-21T00:18:57.741Z,6.62
2018-12-21T00:19:57.662Z,6.62
2018-12-21T00:20:57.601Z,6.64
2018-12-21T00:21:57.640Z,6.64
2018-12-21T00:22:57.664Z,6.61
2018-12-21T00:23:57.825Z,6.64
2018-12-21T00:24:57.788Z,6.64
2018-12-21T00:25:57.659Z,6.65
2018-12-21T00:26:57.591Z,6.68
2018-12-21T00:27:57.782Z,6.67
2018-12-21T00:28:57.638Z,6.66
2018-12-21T00:29:57.746Z,6.65
2018-12-21T00:30:57.733Z,6.66
2018-12-21T00:31:57.643Z,6.66
2018-12-21T00:32:57.810Z,6.67
2018-12-21T00:33:57.605Z,6.64
2018-12-21T00:34:57.674Z,6.65
2018-12-21T00:35:57.636Z,6.66
2018-12-21T00:36:57.609Z,6.66
2018-12-21T00:37:57.670Z,6.67
2018-12-21T00:38:57.624Z,6.66
2018-12-21T00:39:57.734Z,6.66
2018-12-21T00:40:57.809Z,6.66
2018-12-21T00:41:57.598Z,6.67
2018-12-21T00:42:57.581Z,6.67
2018-12-21T00:43:57.692Z,6.66
2018-12-21T00:44:57.754Z,6.68
2018-12-21T00:45:57.772Z,6.67
2018-12-21T00:46:57.816Z,6.66
2018-12-21T00:47:57.888Z,6.67
2018-12-21T00:48:57.730Z,6.65
2018-12-21T00:49:57.838Z,6.66
2018-12-21T00:50:57.741Z,6.66
2018-12-21T00:51:57.712Z,6.64
2018-12-21T00:52:57.585Z,6.65
2018-12-21T00:53:57.588Z,6.68
2018-12-21T00:54:57.753Z,6.68
2018-12-21T00:55:57.636Z,6.68
2018-12-21T00:56:57.559Z,6.68
2018-12-21T00:57:57.690Z,6.68
2018-12-21T00:58:57.587Z,6.67
2018-12-21T00:59:57.731Z,6.68
2018-12-21T01:00:57.607Z,6.68
2018-12-21T01:01:57.643Z,6.7
2018-12-21T01:02:57.674Z,6.69
2018-12-21T01:03:57.555Z,6.68
2018-12-21T01:04:57.620Z,6.68
2018-12-21T01:05:57.726Z,6.66
2018-12-21T01:06:57.568Z,6.66
2018-12-21T01:07:57.542Z,6.68
2018-12-21T01:08:57.659Z,6.68
2018-12-21T01:09:57.612Z,6.69
2018-12-21T01:10:57.613Z,6.68
2018-12-21T01:11:57.664Z,6.69
2018-12-21T01:12:57.774Z,6.68
2018-12-21T01:13:57.605Z,6.68
2018-12-21T01:14:57.579Z,6.67
2018-12-21T01:15:57.767Z,6.68
2018-12-21T01:16:58.132Z,6.68
2018-12-21T01:17:57.810Z,6.69
2018-12-21T01:18:57.574Z,6.69
2018-12-21T01:19:57.722Z,6.71
2018-12-21T01:20:57.919Z,6.71
2018-12-21T01:21:57.580Z,6.72
2018-12-21T01:22:57.616Z,6.72
2018-12-21T01:23:57.541Z,6.73
2018-12-21T01:24:57.737Z,6.73
2018-12-21T01:25:57.962Z,6.74
2018-12-21T01:26:57.786Z,6.76
2018-12-21T01:27:57.718Z,6.76
2018-12-21T01:28:57.605Z,6.76
2018-12-21T01:29:57.649Z,6.75
2018-12-21T01:30:57.695Z,6.75
2018-12-21T01:31:57.595Z,6.76
2018-12-21T01:32:57.759Z,6.76
2018-12-21T01:33:57.718Z,6.77
2018-12-21T01:34:57.573Z,6.78
2018-12-21T01:35:57.603Z,6.78
2018-12-21T01:36:57.611Z,6.79
2018-12-21T01:37:57.603Z,6.78
2018-12-21T01:38:57.547Z,6.81
2018-12-21T01:39:57.532Z,6.79
2018-12-21T01:40:57.608Z,6.8
2018-12-21T01:41:58.089Z,6.79
2018-12-21T01:42:57.521Z,6.84
2018-12-21T01:43:57.638Z,6.83
2018-12-21T01:44:57.811Z,6.83
2018-12-21T01:45:58.382Z,6.82
2018-12-21T01:46:57.729Z,6.83
2018-12-21T01:47:57.537Z,6.83
2018-12-21T01:48:58.341Z,6.83
2018-12-21T01:49:57.519Z,6.82
2018-12-21T01:50:57.513Z,6.81
2018-12-21T01:51:57.552Z,6.8
2018-12-21T01:52:57.579Z,6.8
2018-12-21T01:53:57.642Z,6.78
2018-12-21T01:54:57.651Z,6.77
2018-12-21T01:55:57.742Z,6.78
2018-12-21T01:56:57.674Z,6.81
2018-12-21T01:57:57.734Z,6.8
2018-12-21T01:58:57.716Z,6.78
2018-12-21T01:59:57.706Z,6.78
2018-12-21T02:00:57.488Z,6.78
2018-12-21T02:01:57.885Z,6.78
2018-12-21T02:02:57.720Z,6.78
2018-12-21T02:03:57.669Z,6.78
2018-12-21T02:04:58.309Z,6.78
2018-12-21T02:05:57.848Z,6.79
2018-12-21T02:06:57.590Z,6.79
2018-12-21T02:07:57.657Z,6.78
2018-12-21T02:08:57.717Z,6.79
2018-12-21T02:09:57.462Z,6.8
2018-12-21T02:10:57.721Z,6.79
2018-12-21T02:11:57.591Z,6.78
2018-12-21T02:12:57.831Z,6.79
2018-12-21T02:13:57.518Z,6.79
2018-12-21T02:14:57.486Z,6.8
2018-12-21T02:15:57.647Z,6.79
2018-12-21T02:16:57.474Z,6.78
2018-12-21T02:17:57.711Z,6.81
2018-12-21T02:18:57.574Z,6.82
2018-12-21T02:19:57.841Z,6.79
2018-12-21T02:20:57.529Z,6.8
2018-12-21T02:21:57.775Z,6.8
2018-12-21T02:22:57.617Z,6.79
2018-12-21T02:23:57.793Z,6.8
2018-12-21T02:24:57.968Z,6.81
2018-12-21T02:25:58.294Z,6.82
2018-12-21T02:26:57.514Z,6.8
2018-12-21T02:27:57.469Z,6.77
2018-12-21T02:28:57.454Z,6.76
2018-12-21T02:29:57.508Z,6.77
2018-12-21T02:30:57.717Z,6.77
2018-12-21T02:31:57.619Z,6.8
2018-12-21T02:32:57.641Z,6.8
2018-12-21T02:33:57.461Z,6.78
2018-12-21T02:34:57.612Z,6.81
2018-12-21T02:35:57.453Z,6.79
2018-12-21T02:36:57.450Z,6.78
2018-12-21T02:37:57.487Z,6.81
2018-12-21T02:38:57.435Z,6.79
2018-12-21T02:39:57.485Z,6.79
2018-12-21T02:40:57.495Z,6.79
2018-12-21T02:41:57.603Z,6.81
2018-12-21T02:42:57.453Z,6.79
2018-12-21T02:43:57.550Z,6.81
2018-12-21T02:44:57.401Z,6.81
2018-12-21T02:45:57.495Z,6.8
2018-12-21T02:46:57.469Z,6.81
2018-12-21T02:47:57.587Z,6.8
2018-12-21T02:48:57.431Z,6.78
2018-12-21T02:49:57.474Z,6.79
2018-12-21T02:50:57.416Z,6.8
2018-12-21T02:52:06.043Z,6.79
2018-12-21T02:52:57.448Z,6.77
2018-12-21T02:53:57.477Z,6.78
2018-12-21T02:54:57.684Z,6.77
2018-12-21T02:55:57.495Z,6.78
2018-12-21T02:56:57.524Z,6.77
2018-12-21T02:57:57.495Z,6.77
2018-12-21T02:58:57.625Z,6.77
2018-12-21T02:59:57.459Z,6.76
2018-12-21T03:00:57.454Z,6.78
2018-12-21T03:01:57.454Z,6.76
2018-12-21T03:02:57.632Z,6.77
2018-12-21T03:03:57.885Z,6.78
2018-12-21T03:04:57.586Z,6.78
2018-12-21T03:05:57.601Z,6.78
2018-12-21T03:06:57.698Z,6.77
2018-12-21T03:07:57.426Z,6.75
2018-12-21T03:08:57.632Z,6.76
2018-12-21T03:09:57.471Z,6.77
2018-12-21T03:10:57.448Z,6.79
2018-12-21T03:11:57.515Z,6.78
2018-12-21T03:12:57.437Z,6.77
2018-12-21T03:13:57.397Z,6.76
2018-12-21T03:14:57.648Z,6.75
2018-12-21T03:15:57.577Z,6.75
2018-12-21T03:16:57.709Z,6.76
2018-12-21T03:17:57.528Z,6.77
2018-12-21T03:18:57.562Z,6.76
2018-12-21T03:19:57.659Z,6.77
2018-12-21T03:20:57.390Z,6.76
2018-12-21T03:21:57.588Z,6.77
2018-12-21T03:22:57.513Z,6.76
2018-12-21T03:23:57.482Z,6.75
2018-12-21T03:24:57.395Z,6.75
2018-12-21T03:25:57.606Z,6.75
2018-12-21T03:26:57.558Z,6.74
2018-12-21T03:27:57.586Z,6.76
2018-12-21T03:28:57.410Z,6.75
2018-12-21T03:29:57.703Z,6.75
2018-12-21T03:30:57.482Z,6.76
2018-12-21T03:31:57.477Z,6.76
2018-12-21T03:32:57.493Z,6.76
2018-12-21T03:33:57.416Z,6.77
2018-12-21T03:34:57.747Z,6.77
2018-12-21T03:35:57.392Z,6.77
2018-12-21T03:36:57.540Z,6.76
2018-12-21T03:37:57.428Z,6.78
2018-12-21T03:38:57.685Z,6.77
2018-12-21T03:39:57.378Z,6.78
2018-12-21T03:40:58.187Z,6.77
2018-12-21T03:41:58.234Z,6.76
2018-12-21T03:42:57.446Z,6.79
2018-12-21T03:43:57.575Z,6.78
2018-12-21T03:44:57.348Z,6.76
2018-12-21T03:45:57.720Z,6.76
2018-12-21T03:46:57.507Z,6.77
2018-12-21T03:47:57.372Z,6.76
2018-12-21T03:48:57.505Z,6.77
2018-12-21T03:49:57.983Z,6.75
2018-12-21T03:50:57.521Z,6.76
2018-12-21T03:51:57.356Z,6.76
2018-12-21T03:52:57.387Z,6.75
2018-12-21T03:53:57.367Z,6.74
2018-12-21T03:54:57.537Z,6.71
2018-12-21T03:55:57.436Z,6.73
2018-12-21T03:56:57.324Z,6.73
2018-12-21T03:57:57.504Z,6.73
2018-12-21T03:58:57.562Z,6.73
2018-12-21T03:59:57.450Z,6.74
2018-12-21T04:00:57.517Z,6.74
2018-12-21T04:01:57.354Z,6.74
2018-12-21T04:02:57.859Z,6.74
2018-12-21T04:03:58.213Z,6.75
2018-12-21T04:04:57.804Z,6.74
2018-12-21T04:05:57.352Z,6.77
2018-12-21T04:06:57.412Z,6.78
2018-12-21T04:07:57.431Z,6.77
2018-12-21T04:08:57.512Z,6.74
2018-12-21T04:09:57.567Z,6.73
2018-12-21T04:10:57.455Z,6.73
2018-12-21T04:11:57.433Z,6.73
2018-12-21T04:12:57.370Z,6.73
2018-12-21T04:13:57.663Z,6.7
2018-12-21T04:14:57.385Z,6.72
2018-12-21T04:15:57.477Z,6.74
2018-12-21T04:16:57.446Z,6.74
2018-12-21T04:17:57.358Z,6.72
2018-12-21T04:18:57.425Z,6.73
2018-12-21T04:19:57.493Z,6.76
2018-12-21T04:20:57.373Z,6.72
2018-12-21T04:21:57.381Z,6.75
2018-12-21T04:22:57.380Z,6.74
2018-12-21T04:23:57.436Z,6.74
2018-12-21T04:24:57.420Z,6.74
2018-12-21T04:25:57.588Z,6.74
2018-12-21T04:26:57.484Z,6.76
2018-12-21T04:27:57.311Z,6.76
2018-12-21T04:28:57.408Z,6.76
2018-12-21T04:29:57.306Z,6.74
2018-12-21T04:30:57.377Z,6.76
2018-12-21T04:31:57.321Z,6.72
2018-12-21T04:32:57.298Z,6.72
2018-12-21T04:33:57.345Z,6.73
2018-12-21T04:34:57.305Z,6.72
2018-12-21T04:35:57.383Z,6.73
2018-12-21T04:36:57.349Z,6.72
2018-12-21T04:37:57.530Z,6.73
2018-12-21T04:38:57.659Z,6.72
2018-12-21T04:39:57.597Z,6.72
2018-12-21T04:40:57.456Z,6.74
2018-12-21T04:41:57.375Z,6.73
2018-12-21T04:42:57.396Z,6.73
2018-12-21T04:43:57.478Z,6.73
2018-12-21T04:44:57.314Z,6.72
2018-12-21T04:45:57.483Z,6.74
2018-12-21T04:46:57.321Z,6.74
2018-12-21T04:47:57.381Z,6.74
2018-12-21T04:48:57.425Z,6.74
2018-12-21T04:49:57.295Z,6.73
2018-12-21T04:50:57.559Z,6.74
2018-12-21T04:51:58.106Z,6.73
2018-12-21T04:52:57.532Z,6.7
2018-12-21T04:53:57.814Z,6.7
2018-12-21T04:54:57.413Z,6.7
2018-12-21T04:55:57.402Z,6.68
2018-12-21T04:56:57.463Z,6.68
2018-12-21T04:57:57.445Z,6.67
2018-12-21T04:58:57.396Z,6.67
2018-12-21T04:59:57.349Z,6.66
2018-12-21T05:00:57.432Z,6.68
2018-12-21T05:01:57.366Z,6.68
2018-12-21T05:02:57.373Z,6.67
2018-12-21T05:03:57.270Z,6.68
2018-12-21T05:04:57.451Z,6.68
2018-12-21T05:05:57.674Z,6.67
2018-12-21T05:06:58.829Z,6.66
2018-12-21T05:07:57.395Z,6.65
2018-12-21T05:08:57.452Z,6.67
2018-12-21T05:09:57.575Z,6.64
2018-12-21T05:10:57.224Z,6.66
2018-12-21T05:11:58.099Z,6.67
2018-12-21T05:12:57.631Z,6.67
2018-12-21T05:13:57.243Z,6.66
2018-12-21T05:14:57.247Z,6.66
2018-12-21T05:15:57.492Z,6.67
2018-12-21T05:16:57.265Z,6.66
2018-12-21T05:17:57.412Z,6.65
2018-12-21T05:18:57.792Z,6.65
2018-12-21T05:19:57.391Z,6.68
2018-12-21T05:20:57.507Z,6.66
2018-12-21T05:21:57.298Z,6.68
2018-12-21T05:22:57.478Z,6.68
2018-12-21T05:23:57.950Z,6.68
2018-12-21T05:24:57.784Z,6.68
2018-12-21T05:25:57.602Z,6.67
2018-12-21T05:26:57.305Z,6.64
2018-12-21T05:27:57.806Z,6.66
2018-12-21T05:28:57.560Z,6.7
2018-12-21T05:29:57.328Z,6.69
2018-12-21T05:30:57.280Z,6.7
2018-12-21T05:31:57.407Z,6.7
2018-12-21T05:32:57.471Z,6.68
2018-12-21T05:33:57.415Z,6.66
2018-12-21T05:34:57.377Z,6.68
2018-12-21T05:35:57.409Z,6.69
2018-12-21T05:36:57.634Z,6.64
2018-12-21T05:37:58.098Z,6.69
2018-12-21T05:38:57.474Z,6.71
2018-12-21T05:39:57.344Z,6.74
2018-12-21T05:40:57.286Z,6.74
2018-12-21T05:41:57.432Z,6.76
2018-12-21T05:42:57.246Z,6.78
2018-12-21T05:43:58.082Z,6.8
2018-12-21T05:44:57.635Z,6.8
2018-12-21T05:45:57.223Z,6.82
2018-12-21T05:46:57.276Z,6.84
2018-12-21T05:47:57.386Z,6.87
2018-12-21T05:48:57.304Z,6.89
2018-12-21T05:49:57.302Z,6.88
2018-12-21T05:50:57.494Z,6.91
2018-12-21T05:51:57.417Z,6.9
2018-12-21T05:53:01.343Z,6.92
2018-12-21T05:53:57.532Z,6.95
2018-12-21T05:54:57.374Z,6.94
2018-12-21T05:55:57.428Z,6.97
2018-12-21T05:56:57.416Z,6.95
2018-12-21T05:57:57.208Z,7
2018-12-21T05:58:57.309Z,6.97
2018-12-21T05:59:57.247Z,6.98
2018-12-21T06:00:57.205Z,6.99
2018-12-21T06:01:57.210Z,7
2018-12-21T06:02:57.234Z,7.01
2018-12-21T06:03:57.175Z,7.01
2018-12-21T06:04:57.195Z,7.02
2018-12-21T06:05:57.212Z,7.03
2018-12-21T06:06:57.241Z,7.04
2018-12-21T06:07:57.260Z,7.03
2018-12-21T06:08:57.300Z,7.05
2018-12-21T06:09:57.238Z,7.04
2018-12-21T06:10:57.548Z,7.07
2018-12-21T06:11:57.218Z,7.04
2018-12-21T06:12:57.210Z,7.09
2018-12-21T06:13:57.190Z,7.04
2018-12-21T06:14:57.176Z,7.06
2018-12-21T06:15:57.182Z,7.09
2018-12-21T06:16:57.238Z,7.05
2018-12-21T06:17:57.451Z,7.07
2018-12-21T06:18:57.239Z,7.13
2018-12-21T06:19:57.223Z,7.12
2018-12-21T06:20:57.471Z,7.09
2018-12-21T06:21:57.254Z,7.13
2018-12-21T06:22:57.730Z,7.14
2018-12-21T06:23:57.353Z,7.14
2018-12-21T06:24:57.158Z,7.16
2018-12-21T06:25:57.200Z,7.16
2018-12-21T06:26:57.179Z,7.18
2018-12-21T06:27:57.231Z,7.17
2018-12-21T06:28:57.156Z,7.19
2018-12-21T06:29:57.415Z,7.2
2018-12-21T06:30:57.644Z,7.21
2018-12-21T06:31:57.145Z,7.19
2018-12-21T06:32:57.205Z,7.19
2018-12-21T06:33:57.476Z,7.23
2018-12-21T06:34:57.237Z,7.22
2018-12-21T06:35:57.285Z,7.24
2018-12-21T06:36:57.195Z,7.27
2018-12-21T06:37:57.389Z,7.25
2018-12-21T06:38:57.172Z,7.29
2018-12-21T06:39:57.519Z,7.28
2018-12-21T06:40:57.442Z,7.26
2018-12-21T06:41:57.295Z,7.3
2018-12-21T06:42:57.542Z,7.29
2018-12-21T06:43:57.310Z,7.31
2018-12-21T06:44:57.213Z,7.3
2018-12-21T06:45:57.132Z,7.29
2018-12-21T06:46:57.318Z,7.31
2018-12-21T06:47:57.574Z,7.31
2018-12-21T06:48:57.187Z,7.32
2018-12-21T06:49:57.384Z,7.31
2018-12-21T06:50:57.260Z,7.31
2018-12-21T06:51:57.157Z,7.31
2018-12-21T06:52:57.249Z,7.34
2018-12-21T06:53:57.219Z,7.32
2018-12-21T06:54:57.250Z,7.33
2018-12-21T06:55:57.665Z,7.32
2018-12-21T06:56:57.380Z,7.34
2018-12-21T06:57:57.357Z,7.33
2018-12-21T06:58:57.141Z,7.34
2018-12-21T06:59:57.187Z,7.35
2018-12-21T07:00:57.303Z,7.35
2018-12-21T07:01:57.157Z,7.35
2018-12-21T07:02:57.171Z,7.34
2018-12-21T07:03:57.139Z,7.35
2018-12-21T07:04:57.482Z,7.37
2018-12-21T07:05:57.338Z,7.34
2018-12-21T07:06:57.606Z,7.38
2018-12-21T07:07:57.195Z,7.37
2018-12-21T07:08:57.130Z,7.36
2018-12-21T07:09:57.132Z,7.36
2018-12-21T07:10:57.320Z,7.4
2018-12-21T07:11:57.482Z,7.37
2018-12-21T07:12:57.891Z,7.39
2018-12-21T07:13:57.119Z,7.38
2018-12-21T07:14:57.094Z,7.39
2018-12-21T07:15:57.099Z,7.41
2018-12-21T07:16:57.308Z,7.4
2018-12-21T07:17:57.169Z,7.4
2018-12-21T07:18:57.168Z,7.41
2018-12-21T07:19:57.364Z,7.41
2018-12-21T07:20:57.372Z,7.41
2018-12-21T07:21:57.108Z,7.41
2018-12-21T07:22:57.267Z,7.42
2018-12-21T07:23:57.327Z,7.4
2018-12-21T07:24:57.352Z,7.39
2018-12-21T07:25:57.168Z,7.4
2018-12-21T07:26:57.907Z,7.44
2018-12-21T07:27:57.098Z,7.43
2018-12-21T07:28:57.472Z,7.42
2018-12-21T07:29:57.926Z,7.45
2018-12-21T07:30:57.194Z,7.45
2018-12-21T07:31:57.259Z,7.45
2018-12-21T07:32:57.238Z,7.42
2018-12-21T07:33:57.201Z,7.44
2018-12-21T07:34:57.505Z,7.46
2018-12-21T07:35:57.428Z,7.46
2018-12-21T07:36:57.282Z,7.45
2018-12-21T07:37:57.202Z,7.47
2018-12-21T07:38:57.189Z,7.48
2018-12-21T07:39:57.181Z,7.47
2018-12-21T07:40:57.102Z,7.48
2018-12-21T07:41:57.302Z,7.45
2018-12-21T07:42:57.240Z,7.46
2018-12-21T07:43:57.178Z,7.47
2018-12-21T07:44:57.269Z,7.49
2018-12-21T07:45:57.154Z,7.5
2018-12-21T07:46:57.232Z,7.49
2018-12-21T07:47:57.118Z,7.47
2018-12-21T07:48:57.135Z,7.5
2018-12-21T07:49:57.287Z,7.48
2018-12-21T07:50:57.080Z,7.51
2018-12-21T07:51:57.155Z,7.51
2018-12-21T07:52:57.134Z,7.52
2018-12-21T07:53:57.224Z,7.51
2018-12-21T07:54:57.365Z,7.49
2018-12-21T07:55:57.117Z,7.5
2018-12-21T07:56:57.188Z,7.52
2018-12-21T07:57:58.920Z,7.52
2018-12-21T07:58:57.888Z,7.54
2018-12-21T07:59:57.304Z,7.55
2018-12-21T08:00:57.297Z,7.53
2018-12-21T08:01:57.219Z,7.54
2018-12-21T08:02:57.061Z,7.5
2018-12-21T08:03:57.291Z,7.53
2018-12-21T08:04:57.694Z,7.54
2018-12-21T08:05:57.233Z,7.54
2018-12-21T08:06:57.278Z,7.55
2018-12-21T08:07:57.367Z,7.54
2018-12-21T08:08:57.197Z,7.52
2018-12-21T08:09:57.481Z,7.51
2018-12-21T08:10:57.342Z,7.55
2018-12-21T08:11:57.154Z,7.55
2018-12-21T08:12:57.266Z,7.57
2018-12-21T08:13:57.295Z,7.55
2018-12-21T08:14:57.207Z,7.54
2018-12-21T08:15:57.118Z,7.54
2018-12-21T08:16:57.125Z,7.54
2018-12-21T08:17:57.565Z,7.54
2018-12-21T08:18:57.342Z,7.56
2018-12-21T08:19:57.193Z,7.56
2018-12-21T08:20:57.047Z,7.56
2018-12-21T08:21:57.077Z,7.56
2018-12-21T08:22:57.041Z,7.55
2018-12-21T08:23:57.174Z,7.55
2018-12-21T08:24:57.298Z,7.57
2018-12-21T08:25:57.482Z,7.57
2018-12-21T08:26:57.109Z,7.55
2018-12-21T08:27:57.852Z,7.57
2018-12-21T08:28:57.105Z,7.57
2018-12-21T08:29:57.163Z,7.58
2018-12-21T08:30:57.405Z,7.58
2018-12-21T08:31:57.848Z,7.56
2018-12-21T08:32:57.269Z,7.56
2018-12-21T08:33:57.129Z,7.57
2018-12-21T08:34:57.136Z,7.55
2018-12-21T08:35:57.258Z,7.56
2018-12-21T08:36:57.317Z,7.55
2018-12-21T08:37:57.035Z,7.55
2018-12-21T08:38:56.991Z,7.55
2018-12-21T08:39:57.251Z,7.59
2018-12-21T08:40:57.156Z,7.61
2018-12-21T08:41:57.254Z,7.57
2018-12-21T08:42:57.283Z,7.58
2018-12-21T08:43:57.297Z,7.57
2018-12-21T08:44:57.951Z,7.54
2018-12-21T08:45:57.294Z,7.57
2018-12-21T08:46:57.830Z,7.57
2018-12-21T08:47:57.190Z,7.62
2018-12-21T08:48:57.230Z,7.6
2018-12-21T08:49:57.484Z,7.59
2018-12-21T08:50:57.227Z,7.57
2018-12-21T08:51:56.999Z,7.59
2018-12-21T08:52:57.139Z,7.61
2018-12-21T08:53:57.208Z,7.59
2018-12-21T08:54:57.148Z,7.59
2018-12-21T08:55:57.364Z,7.58
2018-12-21T08:56:56.981Z,7.6
2018-12-21T08:57:57.819Z,7.61
2018-12-21T08:58:57.223Z,7.61
2018-12-21T08:59:57.303Z,7.6
2018-12-21T09:00:57.159Z,7.58
2018-12-21T09:01:57.565Z,7.58
2018-12-21T09:02:57.167Z,7.6
2018-12-21T09:03:57.260Z,7.62
2018-12-21T09:04:57.062Z,7.63
2018-12-21T09:05:57.304Z,7.64
2018-12-21T09:06:57.234Z,7.6
2018-12-21T09:07:57.390Z,7.64
2018-12-21T09:08:57.245Z,7.63
2018-12-21T09:09:57.006Z,7.61
2018-12-21T09:10:57.081Z,7.62
2018-12-21T09:11:57.153Z,7.65
2018-12-21T09:12:57.000Z,7.63
2018-12-21T09:13:57.230Z,7.66
2018-12-21T09:14:56.965Z,7.67
2018-12-21T09:15:57.424Z,7.68
2018-12-21T09:16:57.195Z,7.68
2018-12-21T09:17:56.965Z,7.68
2018-12-21T09:18:57.121Z,7.67
2018-12-21T09:19:57.084Z,7.71
2018-12-21T09:20:57.090Z,7.71
2018-12-21T09:21:57.091Z,7.73
2018-12-21T09:22:57.023Z,7.69
2018-12-21T09:24:01.669Z,7.73
2018-12-21T09:24:57.323Z,7.73
2018-12-21T09:25:57.056Z,7.74
2018-12-21T09:26:56.960Z,7.75
2018-12-21T09:27:57.297Z,7.75
2018-12-21T09:28:56.936Z,7.74
2018-12-21T09:29:57.154Z,7.78
2018-12-21T09:30:57.148Z,7.8
2018-12-21T09:32:05.670Z,7.79
2018-12-21T09:32:56.953Z,7.79
2018-12-21T09:33:56.941Z,7.78
2018-12-21T09:34:57.332Z,7.79
2018-12-21T09:35:57.129Z,7.81
2018-12-21T09:36:57.009Z,7.8
2018-12-21T09:37:57.132Z,7.82
2018-12-21T09:38:56.916Z,7.83
2018-12-21T09:39:57.016Z,7.84
2018-12-21T09:40:57.082Z,7.84
2018-12-21T09:41:57.054Z,7.87
2018-12-21T09:42:56.964Z,7.89
2018-12-21T09:43:56.925Z,7.89
2018-12-21T09:44:57.237Z,7.88
2018-12-21T09:45:57.198Z,7.89
2018-12-21T09:46:57.190Z,7.91
2018-12-21T09:47:57.157Z,7.9
2018-12-21T09:48:57.297Z,7.92
2018-12-21T09:49:57.095Z,7.91
2018-12-21T09:50:57.239Z,7.93
2018-12-21T09:51:57.160Z,7.93
2018-12-21T09:52:57.738Z,7.92
2018-12-21T09:53:57.106Z,7.94
2018-12-21T09:54:57.114Z,7.97
2018-12-21T09:55:56.922Z,7.99
2018-12-21T09:56:56.888Z,7.99
2018-12-21T09:57:57.136Z,8
2018-12-21T09:58:57.087Z,8
2018-12-21T09:59:56.979Z,8.02
2018-12-21T10:00:57.799Z,8
2018-12-21T10:01:56.927Z,8.04
2018-12-21T10:02:56.950Z,8.03
2018-12-21T10:03:57.077Z,8.04
2018-12-21T10:04:56.963Z,8
2018-12-21T10:05:57.165Z,8.04
2018-12-21T10:06:57.299Z,8.03
2018-12-21T10:07:56.883Z,8.02
2018-12-21T10:08:57.081Z,8.03
2018-12-21T10:09:57.730Z,8.06
2018-12-21T10:10:57.073Z,8.03
2018-12-21T10:11:57.285Z,8.05
2018-12-21T10:12:57.110Z,8.05
2018-12-21T10:13:57.094Z,8.08
2018-12-21T10:14:57.185Z,8.08
2018-12-21T10:15:57.243Z,8.07
2018-12-21T10:16:56.961Z,8.08
2018-12-21T10:17:57.693Z,8.09
2018-12-21T10:18:57.129Z,8.08
2018-12-21T10:19:57.743Z,8.1
2018-12-21T10:20:56.918Z,8.13
2018-12-21T10:21:56.926Z,8.11
2018-12-21T10:22:56.934Z,8.11
2018-12-21T10:23:57.167Z,8.13
2018-12-21T10:24:57.074Z,8.14
2018-12-21T10:25:57.107Z,8.09
2018-12-21T10:26:57.202Z,8.09
2018-12-21T10:27:57.027Z,8.12
2018-12-21T10:28:56.873Z,8.13
2018-12-21T10:29:56.907Z,8.09
2018-12-21T10:30:57.696Z,8.1
2018-12-21T10:31:56.929Z,8.13
2018-12-21T10:32:57.676Z,8.17
2018-12-21T10:33:57.035Z,8.12
2018-12-21T10:34:57.178Z,8.14
2018-12-21T10:35:56.875Z,8.13
2018-12-21T10:36:57.714Z,8.16
2018-12-21T10:37:57.716Z,8.12
2018-12-21T10:38:57.145Z,8.15
2018-12-21T10:39:57.250Z,8.12
2018-12-21T10:40:57.218Z,8.14
2018-12-21T10:41:57.250Z,8.12
2018-12-21T10:42:56.859Z,8.15
2018-12-21T10:43:57.662Z,8.14
2018-12-21T10:44:56.631Z,8.17
2018-12-21T10:45:56.886Z,8.2
2018-12-21T10:46:57.640Z,8.16
2018-12-21T10:47:57.101Z,8.18
2018-12-21T10:48:57.076Z,8.21
2018-12-21T10:49:56.851Z,8.21
2018-12-21T10:50:56.848Z,8.2
2018-12-21T10:51:57.664Z,8.19
2018-12-21T10:52:56.956Z,8.2
2018-12-21T10:53:57.084Z,8.21
2018-12-21T10:54:57.182Z,8.21
2018-12-21T10:55:57.158Z,8.24
2018-12-21T10:56:57.219Z,8.24
2018-12-21T10:57:56.970Z,8.25
2018-12-21T10:58:56.872Z,8.24
2018-12-21T10:59:57.116Z,8.25
2018-12-21T11:00:56.817Z,8.22
2018-12-21T11:01:56.804Z,8.24
2018-12-21T11:02:56.821Z,8.24
2018-12-21T11:03:56.839Z,8.24
2018-12-21T11:04:56.813Z,8.23
2018-12-21T11:05:56.826Z,8.26
2018-12-21T11:06:56.843Z,8.26
2018-12-21T11:07:56.820Z,8.27
2018-12-21T11:08:56.841Z,8.3
2018-12-21T11:09:56.876Z,8.29
2018-12-21T11:10:57.062Z,8.28
2018-12-21T11:11:56.815Z,8.29
2018-12-21T11:12:56.765Z,8.3
2018-12-21T11:13:56.827Z,8.31
2018-12-21T11:14:56.773Z,8.32
2018-12-21T11:15:56.857Z,8.32
2018-12-21T11:16:56.846Z,8.32
2018-12-21T11:17:56.907Z,8.33
2018-12-21T11:18:57.290Z,8.33
2018-12-21T11:19:57.058Z,8.35
2018-12-21T11:20:57.116Z,8.36
2018-12-21T11:21:57.033Z,8.38
2018-12-21T11:22:57.141Z,8.41
2018-12-21T11:23:57.138Z,8.39
2018-12-21T11:24:57.451Z,8.4
2018-12-21T11:25:56.759Z,8.42
2018-12-21T11:26:56.782Z,8.43
2018-12-21T11:27:56.887Z,8.41
2018-12-21T11:28:56.779Z,8.44
2018-12-21T11:29:57.018Z,8.48
2018-12-21T11:30:57.032Z,8.44
2018-12-21T11:31:56.763Z,8.47
2018-12-21T11:32:57.474Z,8.48
2018-12-21T11:33:56.764Z,8.44
2018-12-21T11:34:56.993Z,8.47
2018-12-21T11:35:57.007Z,8.49
2018-12-21T11:36:56.785Z,8.46
2018-12-21T11:37:57.212Z,8.49
2018-12-21T11:38:56.836Z,8.48
2018-12-21T11:39:56.814Z,8.49
2018-12-21T11:40:57.114Z,8.51
2018-12-21T11:41:57.109Z,8.5
2018-12-21T11:42:57.069Z,8.52
2018-12-21T11:43:56.875Z,8.5
2018-12-21T11:44:56.863Z,8.5
2018-12-21T11:45:57.049Z,8.52
2018-12-21T11:46:57.592Z,8.53
2018-12-21T11:47:56.989Z,8.51
2018-12-21T11:48:56.884Z,8.5
2018-12-21T11:49:56.750Z,8.49
2018-12-21T11:50:56.862Z,8.51
2018-12-21T11:51:57.056Z,8.51
2018-12-21T11:52:56.835Z,8.53
2018-12-21T11:53:56.799Z,8.54
2018-12-21T11:54:59.219Z,8.54
2018-12-21T11:55:57.580Z,8.52
2018-12-21T11:56:56.787Z,8.52
2018-12-21T11:57:56.962Z,8.54
2018-12-21T11:58:56.933Z,8.52
2018-12-21T11:59:56.783Z,8.55
2018-12-21T12:00:57.561Z,8.54
2018-12-21T12:01:57.587Z,8.56
2018-12-21T12:02:56.882Z,8.53
2018-12-21T12:03:57.618Z,8.54
2018-12-21T12:04:56.739Z,8.54
2018-12-21T12:05:56.927Z,8.56
2018-12-21T12:06:57.109Z,8.57
2018-12-21T12:07:57.118Z,8.56
2018-12-21T12:08:56.749Z,8.56
2018-12-21T12:09:56.759Z,8.54
2018-12-21T12:10:56.788Z,8.55
2018-12-21T12:11:56.959Z,8.55
2018-12-21T12:12:56.790Z,8.55
2018-12-21T12:13:56.883Z,8.52
2018-12-21T12:14:57.609Z,8.55
2018-12-21T12:15:56.851Z,8.56
2018-12-21T12:16:59.070Z,8.55
2018-12-21T12:17:56.910Z,8.55
2018-12-21T12:18:56.850Z,8.57
2018-12-21T12:19:56.808Z,8.56
2018-12-21T12:20:57.141Z,8.58
2018-12-21T12:21:56.861Z,8.57
2018-12-21T12:22:56.830Z,8.56
2018-12-21T12:23:56.888Z,8.57
2018-12-21T12:24:56.830Z,8.58
2018-12-21T12:25:56.853Z,8.57
2018-12-21T12:26:57.106Z,8.57
2018-12-21T12:27:56.948Z,8.58
2018-12-21T12:28:56.765Z,8.58
2018-12-21T12:29:56.828Z,8.6
2018-12-21T12:30:57.244Z,8.6
2018-12-21T12:31:56.911Z,8.59
2018-12-21T12:32:56.816Z,8.61
2018-12-21T12:33:57.230Z,8.6
2018-12-21T12:34:56.932Z,8.61
2018-12-21T12:35:56.829Z,8.63
2018-12-21T12:36:58.304Z,8.63
2018-12-21T12:37:56.763Z,8.62
2018-12-21T12:38:56.716Z,8.63
2018-12-21T12:39:56.806Z,8.64
2018-12-21T12:40:56.727Z,8.65
2018-12-21T12:41:56.700Z,8.67
2018-12-21T12:42:56.703Z,8.65
2018-12-21T12:43:57.142Z,8.64
2018-12-21T12:44:56.706Z,8.65
2018-12-21T12:45:56.683Z,8.67
2018-12-21T12:46:56.715Z,8.66
2018-12-21T12:47:56.938Z,8.63
2018-12-21T12:48:56.680Z,8.65
2018-12-21T12:49:56.720Z,8.62
2018-12-21T12:50:56.760Z,8.63
2018-12-21T12:51:56.861Z,8.65
2018-12-21T12:52:56.693Z,8.66
2018-12-21T12:53:56.852Z,8.68
2018-12-21T12:55:03.493Z,8.7
2018-12-21T12:55:57.070Z,8.71
2018-12-21T12:56:56.791Z,8.69
2018-12-21T12:57:56.755Z,8.68
2018-12-21T12:58:56.761Z,8.69
2018-12-21T12:59:56.877Z,8.72
2018-12-21T13:00:56.892Z,8.71
2018-12-21T13:01:58.771Z,8.72
2018-12-21T13:02:57.125Z,8.7
2018-12-21T13:03:57.113Z,8.72
2018-12-21T13:04:56.813Z,8.7
2018-12-21T13:05:56.970Z,8.74
2018-12-21T13:06:56.942Z,8.74
2018-12-21T13:07:57.495Z,8.74
2018-12-21T13:08:56.700Z,8.73
2018-12-21T13:09:56.831Z,8.74
2018-12-21T13:10:56.745Z,8.74
2018-12-21T13:11:57.011Z,8.74
2018-12-21T13:12:57.058Z,8.73
2018-12-21T13:13:57.186Z,8.76
2018-12-21T13:14:57.007Z,8.74
2018-12-21T13:15:57.096Z,8.75
2018-12-21T13:16:56.848Z,8.76
2018-12-21T13:17:56.891Z,8.76
2018-12-21T13:18:56.979Z,8.74
2018-12-21T13:19:57.191Z,8.77
2018-12-21T13:20:56.680Z,8.78
2018-12-21T13:21:56.854Z,8.75